Impacts TAF Board INFO
FOR SITUATIONAL AWARENESS. NOT TO BE USED FOR FLIGHT PLANNING PURPOSES.
IDs:

KDCA - Washington/National, VA, US

Issued at 2338 UTC 24 Feb 2018
Updated at 0157 UTC 25 Feb 2018
Potential Impact None Slight Moderate High
Time<<26/02Z 26/03Z 26/04Z 26/05Z 26/06Z 26/07Z 26/08Z 26/09Z 26/10Z 26/11Z 26/12Z 26/13Z 26/14Z
Type PRVL PRVL PRVL PRVL
VIS >6 >6 >6 >6
CIG 250 250 250 250
Cover BKN BKN BKN BKN
FltCat VFR VFR VFR VFR
WX -- -- -- --
WDir 290 290 290 290
WSpd 7 7 7 7
WGst -- -- -- --

Raw TAF
KDCA 242338Z 2500/2606 05007KT 3SM -SHRADZ BR BKN010 OVC025
  FM250200 06007KT 3SM -SHRADZ BR BKN009 OVC025
  FM251100 11006KT 1SM -SHRADZ BR BKN003 OVC025
  FM251500 19008KT 2SM -SHRA BR SCT025 OVC040
  FM251800 21011G19KT P6SM SCT025 OVC070
  FM260000 29007KT P6SM SCT070 BKN250


METAR Board
Radar Display
Forecast Discussion

FOR SITUATIONAL AWARENESS. NOT TO BE USED FOR FLIGHT PLANNING PURPOSES.